BIVO/VPN METAR and TAF weather

Enter ICAO airport designator
Station Type Date Time Source
BIVO METAR 2018/07/13 08:34 UTC NOAA

BIVO 130834Z 00000KT 9999 FEW001 SCT005 BKN050 10/10 Q1008


Station Type Date Time Source
BIVO Decoded METAR 2018/07/13 08:34 UTC NOAA

Skjaldthingsstadir, Iceland (BIVO) 65-42N 014-49W 48M
Jul 13, 2018 - 04:34 AM EDT / 2018.07.13 0834 UTC
Wind: Calm:0
Visibility: greater than 7 mile(s):0
Sky conditions: mostly cloudy
Temperature: 50 F (10 C)
Dew Point: 50 F (10 C)
Relative Humidity: 100%
Pressure (altimeter): 29.77 in. Hg (1008 hPa)
ob: BIVO 130834Z 00000KT 9999 FEW001 SCT005 BKN050 10/10 Q1008
cycle: 8

Station Type Date Time Source
BIVO TAF UTC NOAA

Error!


Example: see airport list